Time;durP1;ratioP1;P1;durP2;ratioP2;P2;SDS_P1;SDS_P2;PMS_P1;PMS_P2;Temp;Humidity;BMP_temperature;BMP_pressure;BME280_temperature;BME280_humidity;BME280_pressure;Samples;Min_cycle;Max_cycle;Signal;HPM_P1;HPM_P2
2022/03/24 00:01:35;;;;;;;26.27;13.98;;;6.90;43.60;;;;;;4973766;28;20031;-70
2022/03/24 00:04:00;;;;;;;22.20;14.00;;;6.90;43.80;;;;;;4973714;28;20082;-72
2022/03/24 00:06:27;;;;;;;22.90;13.18;;;6.90;43.80;;;;;;4973874;28;20041;-74
2022/03/24 00:08:53;;;;;;;23.13;13.27;;;6.90;43.70;;;;;;4974325;28;20046;-77
2022/03/24 00:11:20;;;;;;;24.15;13.00;;;6.90;43.70;;;;;;4956836;28;20387;-77
2022/03/24 00:13:45;;;;;;;21.02;13.20;;;6.90;43.90;;;;;;4974070;28;20019;-78
2022/03/24 00:16:11;;;;;;;26.50;14.13;;;6.80;44.10;;;;;;4973898;28;20031;-78
2022/03/24 00:18:36;;;;;;;24.08;14.13;;;6.90;44.30;;;;;;4973845;28;20478;-76
2022/03/24 00:21:02;;;;;;;24.33;14.40;;;6.90;44.20;;;;;;4973913;28;20019;-75
2022/03/24 00:23:28;;;;;;;25.58;13.82;;;6.80;44.30;;;;;;4973936;28;20041;-75
2022/03/24 00:25:54;;;;;;;22.25;11.82;;;6.80;44.30;;;;;;4973790;28;20039;-76
2022/03/24 00:28:20;;;;;;;21.65;13.57;;;6.70;44.80;;;;;;4973644;28;20475;-78
2022/03/24 00:30:45;;;;;;;22.35;13.43;;;6.70;44.90;;;;;;4973696;28;20045;-76
2022/03/24 00:33:12;;;;;;;21.08;13.10;;;6.70;44.70;;;;;;4973903;28;20023;-78
2022/03/24 00:35:37;;;;;;;22.98;14.48;;;6.70;45.00;;;;;;4973956;28;20038;-78
2022/03/24 00:38:05;;;;;;;24.70;14.77;;;6.70;44.70;;;;;;4973942;28;20030;-77
2022/03/24 00:40:30;;;;;;;31.38;15.15;;;6.60;44.40;;;;;;4973984;28;20038;-77
2022/03/24 00:42:56;;;;;;;22.77;14.68;;;6.60;44.30;;;;;;4973650;28;20019;-77
2022/03/24 00:45:21;;;;;;;25.40;14.73;;;6.60;44.40;;;;;;4973368;28;20037;-77
2022/03/24 00:47:47;;;;;;;23.58;14.40;;;6.50;45.30;;;;;;4973789;28;20027;-75
2022/03/24 00:50:13;;;;;;;21.73;12.95;;;6.50;44.70;;;;;;4973571;28;20066;-77
2022/03/24 00:52:43;;;;;;;24.60;14.43;;;6.60;44.80;;;;;;4973521;28;20048;-76
2022/03/24 00:55:17;;;;;;;23.65;14.50;;;6.40;45.00;;;;;;4973514;28;20023;-77
2022/03/24 00:57:45;;;;;;;27.37;14.17;;;6.30;45.20;;;;;;4957239;28;20055;-78
2022/03/24 01:00:16;;;;;;;22.88;13.68;;;6.30;45.30;;;;;;4955937;28;20034;-78
2022/03/24 01:02:48;;;;;;;31.05;14.57;;;6.30;45.50;;;;;;4973529;28;20029;-76
2022/03/24 01:05:16;;;;;;;22.15;13.93;;;6.20;45.50;;;;;;4976635;28;20022;-75
2022/03/24 01:07:42;;;;;;;26.73;14.45;;;6.20;45.60;;;;;;4976820;28;20075;-76
2022/03/24 01:10:09;;;;;;;22.50;13.70;;;6.20;45.40;;;;;;4977084;28;20110;-74
2022/03/24 01:12:36;;;;;;;22.15;13.93;;;6.20;45.20;;;;;;4976982;28;20446;-76
2022/03/24 01:15:04;;;;;;;25.45;14.60;;;6.20;45.20;;;;;;4977001;28;20514;-74
2022/03/24 01:17:31;;;;;;;24.20;14.35;;;6.20;45.20;;;;;;4977147;28;20062;-76
2022/03/24 01:19:57;;;;;;;24.63;14.45;;;6.20;45.00;;;;;;4976793;28;20074;-77
2022/03/24 01:22:23;;;;;;;23.02;13.93;;;6.20;45.00;;;;;;4976642;28;20053;-77
2022/03/24 01:24:49;;;;;;;24.77;14.23;;;6.20;45.50;;;;;;4976751;28;20027;-76
2022/03/24 01:27:16;;;;;;;23.77;14.32;;;6.20;45.50;;;;;;4976936;28;20029;-76
2022/03/24 01:29:42;;;;;;;26.80;15.57;;;6.10;45.40;;;;;;4976558;28;20039;-74
2022/03/24 01:32:08;;;;;;;22.40;13.60;;;6.10;45.60;;;;;;4976677;28;20030;-74
2022/03/24 01:34:34;;;;;;;21.58;12.82;;;6.10;45.50;;;;;;4976732;28;20026;-75
2022/03/24 01:37:00;;;;;;;22.35;13.43;;;6.10;45.60;;;;;;4976458;28;20387;-74
2022/03/24 01:39:26;;;;;;;20.88;14.00;;;6.20;45.60;;;;;;4959188;28;20027;-76
2022/03/24 01:41:52;;;;;;;21.80;13.23;;;6.20;45.70;;;;;;4976526;28;20061;-75
2022/03/24 01:44:19;;;;;;;23.25;13.82;;;6.30;46.00;;;;;;4959093;28;20033;-75
2022/03/24 01:47:03;;;;;;;22.25;13.98;;;6.30;45.90;;;;;;4976345;28;20505;-76
2022/03/24 01:49:31;;;;;;;19.00;13.02;;;6.40;45.50;;;;;;4976196;28;20031;-75
2022/03/24 01:51:57;;;;;;;21.58;14.77;;;6.30;45.30;;;;;;4976405;28;20026;-74
2022/03/24 01:54:24;;;;;;;26.00;14.93;;;6.30;45.10;;;;;;4976202;28;20042;-75
2022/03/24 01:56:51;;;;;;;27.13;14.07;;;6.20;45.50;;;;;;4976381;28;20387;-76
2022/03/24 01:59:17;;;;;;;20.63;13.93;;;6.10;45.80;;;;;;4976215;28;20026;-76
2022/03/24 02:01:44;;;;;;;22.10;14.10;;;6.10;46.00;;;;;;4976205;28;20097;-75
2022/03/24 02:04:10;;;;;;;26.40;14.25;;;6.00;46.00;;;;;;4976145;28;20034;-76
2022/03/24 02:06:36;;;;;;;25.80;14.93;;;6.00;45.70;;;;;;4975789;28;20035;-76
2022/03/24 02:09:04;;;;;;;21.40;14.00;;;6.00;45.50;;;;;;4976245;28;20034;-76
2022/03/24 02:11:30;;;;;;;26.83;15.27;;;6.00;45.50;;;;;;4975921;28;20043;-77
2022/03/24 02:13:56;;;;;;;26.52;15.25;;;5.90;45.80;;;;;;4975888;28;20031;-75
2022/03/24 02:16:26;;;;;;;24.58;15.18;;;5.90;46.00;;;;;;4975464;28;20395;-75
2022/03/24 02:18:51;;;;;;;22.80;14.32;;;5.90;46.90;;;;;;4975699;28;20471;-76
2022/03/24 02:21:17;;;;;;;27.88;15.18;;;5.90;46.10;;;;;;4975657;28;20026;-75
2022/03/24 02:23:44;;;;;;;28.80;15.93;;;5.80;46.30;;;;;;4975720;28;20037;-75
2022/03/24 02:26:10;;;;;;;28.08;15.32;;;5.80;46.40;;;;;;4975782;28;20019;-76
2022/03/24 02:28:36;;;;;;;27.95;15.20;;;5.70;46.50;;;;;;4975716;28;20499;-74
2022/03/24 02:31:04;;;;;;;25.15;15.25;;;5.60;46.60;;;;;;4975648;28;20043;-76
2022/03/24 02:33:30;;;;;;;25.90;15.65;;;5.50;46.90;;;;;;4975756;28;20030;-76
2022/03/24 02:35:56;;;;;;;24.50;15.38;;;5.60;46.80;;;;;;4976039;28;20035;-74
2022/03/24 02:38:22;;;;;;;24.15;15.00;;;5.50;46.90;;;;;;4978966;28;20121;-74
2022/03/24 02:40:51;;;;;;;29.77;14.80;;;5.50;47.10;;;;;;4975463;28;20073;-74
2022/03/24 02:43:19;;;;;;;24.05;13.95;;;5.60;47.20;;;;;;4975215;28;20029;-75
2022/03/24 02:45:46;;;;;;;24.73;14.27;;;5.60;47.10;;;;;;4975370;28;20034;-73
2022/03/24 02:48:12;;;;;;;22.35;13.65;;;5.60;47.60;;;;;;4974843;28;20497;-74
2022/03/24 02:50:38;;;;;;;24.30;14.57;;;5.60;47.50;;;;;;4975077;28;20070;-76
2022/03/24 02:53:04;;;;;;;24.42;15.05;;;5.60;47.30;;;;;;4975071;28;20066;-73
2022/03/24 02:55:30;;;;;;;22.48;13.57;;;5.70;47.50;;;;;;4974850;28;20125;-75
2022/03/24 02:57:55;;;;;;;21.55;13.15;;;5.70;47.60;;;;;;4974786;28;20498;-76
2022/03/24 03:00:22;;;;;;;20.48;13.27;;;5.70;47.60;;;;;;4974735;28;20031;-74
2022/03/24 03:02:47;;;;;;;26.85;15.32;;;5.70;47.60;;;;;;4974815;28;20104;-74
2022/03/24 03:05:13;;;;;;;26.90;14.02;;;5.50;48.00;;;;;;4974904;28;20059;-74
2022/03/24 03:07:39;;;;;;;21.23;14.10;;;5.40;48.40;;;;;;4974440;28;20118;-73
2022/03/24 03:10:06;;;;;;;21.50;13.75;;;5.40;48.80;;;;;;4974636;28;20820;-74
2022/03/24 03:12:31;;;;;;;24.15;14.25;;;5.30;48.80;;;;;;4974686;28;20041;-73
2022/03/24 03:14:57;;;;;;;23.02;14.40;;;5.20;49.00;;;;;;4974652;28;20110;-75
2022/03/24 03:17:22;;;;;;;22.05;14.75;;;5.20;49.20;;;;;;4974564;28;20027;-72
2022/03/24 03:19:48;;;;;;;22.38;13.73;;;5.20;49.50;;;;;;4974424;28;20027;-70
2022/03/24 03:22:14;;;;;;;21.25;14.00;;;5.10;49.70;;;;;;4956980;28;20030;-70
2022/03/24 03:24:40;;;;;;;24.33;14.27;;;5.10;50.00;;;;;;4974432;28;20094;-70
2022/03/24 03:27:07;;;;;;;25.83;13.95;;;5.00;50.20;;;;;;4974096;28;20062;-70
2022/03/24 03:29:32;;;;;;;24.63;15.40;;;4.90;50.40;;;;;;4974139;28;20180;-71
2022/03/24 03:31:58;;;;;;;27.30;15.60;;;4.90;50.90;;;;;;4974242;28;20031;-70
2022/03/24 03:34:26;;;;;;;24.45;15.30;;;4.90;51.10;;;;;;4974175;28;20379;-71
2022/03/24 03:36:53;;;;;;;25.25;14.98;;;4.90;50.90;;;;;;4974237;28;20019;-73
2022/03/24 03:39:19;;;;;;;22.35;14.32;;;4.90;50.90;;;;;;4974044;28;20077;-70
2022/03/24 03:41:45;;;;;;;24.02;15.40;;;4.90;50.80;;;;;;4974326;28;20467;-71
2022/03/24 03:44:11;;;;;;;25.42;15.75;;;4.90;50.60;;;;;;4973945;28;20030;-74
2022/03/24 03:46:37;;;;;;;22.98;14.88;;;4.90;50.90;;;;;;4974133;28;20034;-71
2022/03/24 03:49:04;;;;;;;22.70;14.25;;;4.90;50.90;;;;;;4978430;28;20026;-71
2022/03/24 03:51:31;;;;;;;23.50;14.65;;;4.90;50.90;;;;;;4974266;28;20506;-71
2022/03/24 03:53:57;;;;;;;21.23;13.68;;;4.80;50.90;;;;;;4974194;28;20028;-72
2022/03/24 03:56:23;;;;;;;23.30;14.75;;;4.80;51.10;;;;;;4974081;28;20034;-71
2022/03/24 03:58:48;;;;;;;27.23;14.70;;;4.80;51.30;;;;;;4974077;28;20030;-72
2022/03/24 04:01:14;;;;;;;25.83;15.10;;;4.70;51.70;;;;;;4973780;28;20337;-71
2022/03/24 04:03:40;;;;;;;22.33;14.18;;;4.80;51.70;;;;;;4974105;28;20035;-74
2022/03/24 04:06:10;;;;;;;27.27;16.10;;;4.80;51.50;;;;;;4974205;28;20022;-72
2022/03/24 04:08:38;;;;;;;25.00;15.45;;;4.80;51.30;;;;;;4973627;28;20046;-72
2022/03/24 04:11:07;;;;;;;24.35;15.23;;;4.80;51.20;;;;;;4974060;28;20035;-71
2022/03/24 04:13:36;;;;;;;25.27;15.88;;;4.80;51.30;;;;;;4973643;28;20030;-73
2022/03/24 04:16:03;;;;;;;26.63;15.48;;;4.90;51.30;;;;;;4973954;28;20031;-70
2022/03/24 04:18:29;;;;;;;25.13;14.82;;;4.80;51.60;;;;;;4973902;28;20109;-72
2022/03/24 04:20:54;;;;;;;23.08;14.68;;;4.80;51.40;;;;;;4973915;28;20109;-75
2022/03/24 04:23:21;;;;;;;24.88;14.73;;;4.80;51.20;;;;;;4973621;28;20102;-73
2022/03/24 04:25:47;;;;;;;22.95;14.00;;;4.80;51.10;;;;;;4973851;28;20019;-71
2022/03/24 04:28:14;;;;;;;23.00;14.07;;;4.80;51.10;;;;;;4974060;28;20027;-75
2022/03/24 04:30:40;;;;;;;23.35;14.93;;;4.70;51.50;;;;;;4956340;28;20035;-71
2022/03/24 04:33:06;;;;;;;21.42;14.80;;;4.70;51.20;;;;;;4973616;28;20018;-76
2022/03/24 04:35:32;;;;;;;26.08;14.98;;;4.70;51.20;;;;;;4973658;28;20026;-71
2022/03/24 04:37:57;;;;;;;22.98;15.15;;;4.60;51.30;;;;;;4973879;28;20102;-73
2022/03/24 04:40:24;;;;;;;23.50;14.68;;;4.50;51.70;;;;;;4977056;28;20165;-72
2022/03/24 04:42:52;;;;;;;23.30;14.63;;;4.50;51.90;;;;;;4977691;28;20487;-71
2022/03/24 04:45:18;;;;;;;21.83;13.77;;;4.50;51.80;;;;;;4976748;28;20391;-76
2022/03/24 04:47:45;;;;;;;30.55;16.50;;;4.40;51.80;;;;;;4977589;28;20026;-76
2022/03/24 04:50:13;;;;;;;25.10;15.25;;;4.40;52.10;;;;;;4977220;28;20086;-72
2022/03/24 04:52:38;;;;;;;24.10;15.50;;;4.40;52.30;;;;;;4977894;28;20022;-77
2022/03/24 04:55:07;;;;;;;27.20;16.15;;;4.30;52.30;;;;;;4977437;28;20114;-76
2022/03/24 04:57:32;;;;;;;28.45;17.20;;;4.40;52.30;;;;;;4977271;28;20054;-71
2022/03/24 04:59:58;;;;;;;25.67;15.88;;;4.40;52.30;;;;;;4977197;28;20057;-71
2022/03/24 05:02:24;;;;;;;27.10;15.10;;;4.40;52.40;;;;;;4977381;28;20391;-71
2022/03/24 05:04:50;;;;;;;29.63;16.38;;;4.40;52.40;;;;;;4959510;28;20031;-74
2022/03/24 05:07:16;;;;;;;27.48;16.65;;;4.40;52.40;;;;;;4976892;28;20057;-73
2022/03/24 05:09:41;;;;;;;23.48;14.77;;;4.40;52.50;;;;;;4977126;28;20105;-71
2022/03/24 05:12:07;;;;;;;25.63;15.02;;;4.30;52.60;;;;;;4976880;28;20034;-72
2022/03/24 05:14:33;;;;;;;30.25;16.55;;;4.20;52.70;;;;;;4976776;28;20027;-76
2022/03/24 05:17:00;;;;;;;27.92;16.77;;;4.20;53.30;;;;;;4976708;28;20030;-73
2022/03/24 05:19:27;;;;;;;24.73;15.18;;;4.20;53.90;;;;;;4976979;28;20090;-72
2022/03/24 05:21:53;;;;;;;27.45;15.40;;;4.20;53.80;;;;;;4976829;28;20560;-72
2022/03/24 05:24:18;;;;;;;25.48;15.40;;;4.30;53.80;;;;;;4976455;28;20139;-73
2022/03/24 05:26:44;;;;;;;24.58;14.90;;;4.30;53.70;;;;;;4976776;28;20173;-71
2022/03/24 05:29:10;;;;;;;23.75;14.60;;;4.30;53.50;;;;;;4976313;28;20165;-71
2022/03/24 05:31:36;;;;;;;23.10;14.35;;;4.30;53.30;;;;;;4976684;28;20055;-70
2022/03/24 05:34:02;;;;;;;24.80;15.07;;;4.20;53.30;;;;;;4976441;28;20510;-71
2022/03/24 05:36:28;;;;;;;25.80;15.73;;;4.20;54.10;;;;;;4976343;28;20490;-71
2022/03/24 05:38:54;;;;;;;32.80;18.90;;;4.20;53.40;;;;;;4976459;28;20027;-71
2022/03/24 05:41:19;;;;;;;28.10;16.92;;;4.10;53.30;;;;;;4976342;28;20390;-71
2022/03/24 05:44:02;;;;;;;34.75;18.90;;;4.20;53.30;;;;;;4976143;28;20042;-72
2022/03/24 05:46:32;;;;;;;26.95;16.33;;;4.10;53.80;;;;;;4976304;28;20034;-71
2022/03/24 05:48:58;;;;;;;28.38;17.25;;;4.20;53.80;;;;;;4976193;28;20037;-72
2022/03/24 05:51:24;;;;;;;29.35;17.20;;;4.20;54.00;;;;;;4975804;28;20034;-74
2022/03/24 05:53:50;;;;;;;31.13;17.75;;;4.20;54.60;;;;;;4975711;28;20030;-73
2022/03/24 05:56:16;;;;;;;29.38;16.77;;;4.30;53.50;;;;;;4976157;28;20027;-75
2022/03/24 05:58:42;;;;;;;27.13;16.00;;;4.30;53.30;;;;;;4976077;28;20056;-75
2022/03/24 06:01:09;;;;;;;28.55;17.38;;;4.40;53.30;;;;;;4976215;28;20033;-75
2022/03/24 06:03:35;;;;;;;33.20;18.63;;;4.50;53.20;;;;;;4975581;28;20073;-71
2022/03/24 06:06:03;;;;;;;31.42;17.45;;;4.40;53.30;;;;;;4975640;28;20061;-75
2022/03/24 06:08:30;;;;;;;30.50;17.00;;;4.40;53.50;;;;;;4975725;28;20448;-73
2022/03/24 06:10:55;;;;;;;29.67;17.10;;;4.40;54.00;;;;;;4975594;28;20062;-74
2022/03/24 06:13:22;;;;;;;29.25;15.98;;;4.40;54.60;;;;;;4975552;28;20073;-74
2022/03/24 06:15:50;;;;;;;26.48;16.10;;;4.50;54.40;;;;;;4975767;28;20023;-74
2022/03/24 06:18:16;;;;;;;29.13;16.63;;;4.60;53.90;;;;;;4975716;28;20034;-74
2022/03/24 06:20:43;;;;;;;24.20;14.35;;;4.70;53.60;;;;;;4975671;28;20035;-74
2022/03/24 06:23:09;;;;;;;25.85;15.02;;;4.80;53.30;;;;;;4975571;28;20097;-75
2022/03/24 06:25:37;;;;;;;25.50;15.18;;;4.90;53.20;;;;;;4975424;28;20377;-71
2022/03/24 06:28:06;;;;;;;28.73;16.02;;;5.10;53.10;;;;;;4975145;28;20109;-74
2022/03/24 06:30:32;;;;;;;25.38;15.77;;;5.20;52.80;;;;;;4975146;28;20057;-73
2022/03/24 06:32:58;;;;;;;29.13;15.77;;;5.30;52.60;;;;;;4975298;28;20062;-72
2022/03/24 06:35:24;;;;;;;28.88;15.38;;;5.40;52.40;;;;;;4975615;28;20479;-72
2022/03/24 06:37:51;;;;;;;28.02;15.15;;;5.50;52.10;;;;;;4975408;28;20023;-74
2022/03/24 06:40:17;;;;;;;28.65;16.08;;;5.70;51.80;;;;;;4975144;28;20031;-73
2022/03/24 06:42:43;;;;;;;23.05;14.15;;;5.80;51.40;;;;;;4975103;28;20023;-74
2022/03/24 06:45:10;;;;;;;20.30;13.38;;;5.90;51.20;;;;;;4975440;28;20034;-77
2022/03/24 06:47:37;;;;;;;26.88;16.75;;;6.10;51.10;;;;;;4974786;28;20029;-75
2022/03/24 06:50:10;;;;;;;35.28;19.15;;;6.10;50.60;;;;;;4974983;28;20443;-76
2022/03/24 06:52:36;;;;;;;42.05;22.10;;;6.20;50.20;;;;;;4974807;28;20030;-76
2022/03/24 06:55:03;;;;;;;44.72;23.20;;;6.30;49.80;;;;;;4957806;28;20486;-75
2022/03/24 06:57:29;;;;;;;39.38;21.20;;;6.40;49.30;;;;;;4974288;28;20031;-75
2022/03/24 06:59:54;;;;;;;46.40;24.75;;;6.50;49.10;;;;;;4974964;28;20027;-75
2022/03/24 07:02:20;;;;;;;41.67;22.52;;;6.50;49.00;;;;;;4973763;28;20037;-76
2022/03/24 07:04:47;;;;;;;42.15;21.83;;;6.60;48.70;;;;;;4974366;28;20053;-71
2022/03/24 07:07:12;;;;;;;40.35;22.20;;;6.70;48.70;;;;;;4973972;28;20066;-74
2022/03/24 07:09:39;;;;;;;42.90;22.98;;;6.90;48.60;;;;;;4974170;28;20031;-75
2022/03/24 07:12:05;;;;;;;41.78;23.10;;;7.00;48.20;;;;;;4974596;28;20458;-71
2022/03/24 07:14:30;;;;;;;39.42;21.58;;;7.20;47.80;;;;;;4974428;28;20030;-74
2022/03/24 07:16:56;;;;;;;33.78;19.25;;;7.40;47.30;;;;;;4974304;28;20027;-74
2022/03/24 07:19:22;;;;;;;32.60;20.13;;;7.50;47.00;;;;;;4974262;28;20042;-75
2022/03/24 07:21:48;;;;;;;36.80;18.88;;;7.70;46.80;;;;;;4974463;28;20098;-74
2022/03/24 07:24:14;;;;;;;34.80;19.38;;;7.90;46.50;;;;;;4974477;28;20472;-75
2022/03/24 07:26:40;;;;;;;37.75;18.88;;;8.00;46.20;;;;;;4973516;28;20035;-76
2022/03/24 07:29:06;;;;;;;30.27;19.35;;;8.20;45.90;;;;;;4974145;28;20501;-76
2022/03/24 07:31:32;;;;;;;31.83;18.63;;;8.30;45.60;;;;;;4957071;28;20391;-77
2022/03/24 07:33:58;;;;;;;28.58;16.83;;;8.40;45.10;;;;;;4974142;28;20026;-76
2022/03/24 07:36:25;;;;;;;27.08;17.10;;;8.70;44.70;;;;;;4974309;28;20035;-75
2022/03/24 07:38:52;;;;;;;30.77;18.30;;;8.80;43.90;;;;;;4974149;28;20027;-70
2022/03/24 07:41:17;;;;;;;33.47;19.77;;;9.00;43.00;;;;;;4973973;28;20113;-76
2022/03/24 07:43:43;;;;;;;26.50;16.20;;;9.10;42.50;;;;;;4974230;28;20427;-76
2022/03/24 07:46:09;;;;;;;34.95;20.00;;;9.20;42.40;;;;;;4974249;28;20045;-76
2022/03/24 07:48:34;;;;;;;34.92;19.58;;;9.40;42.30;;;;;;4974213;28;20114;-76
2022/03/24 07:51:00;;;;;;;27.75;17.35;;;9.40;42.10;;;;;;4974409;28;20038;-76
2022/03/24 07:53:28;;;;;;;29.75;17.70;;;9.50;41.90;;;;;;4974025;28;20027;-75
2022/03/24 07:55:56;;;;;;;30.30;17.85;;;9.70;41.70;;;;;;4974063;28;20027;-76
2022/03/24 07:58:23;;;;;;;30.45;17.73;;;9.80;41.20;;;;;;4973807;28;20447;-74
2022/03/24 08:00:48;;;;;;;28.52;16.70;;;9.90;41.10;;;;;;4973543;28;20035;-75
2022/03/24 08:03:16;;;;;;;36.58;18.88;;;10.00;41.30;;;;;;4973876;28;20077;-76
2022/03/24 08:05:42;;;;;;;28.63;18.98;;;10.10;40.30;;;;;;4973808;28;20023;-77
2022/03/24 08:08:09;;;;;;;37.85;20.73;;;10.30;39.70;;;;;;4973278;28;20066;-73
2022/03/24 08:10:36;;;;;;;46.28;15.70;;;10.40;39.00;;;;;;4975429;28;20038;-81
2022/03/24 08:13:03;;;;;;;26.15;15.18;;;10.60;54.50;;;;;;4974796;28;20029;-72
2022/03/24 08:15:28;;;;;;;31.67;16.33;;;11.00;54.10;;;;;;4977228;28;20026;-76
2022/03/24 08:17:54;;;;;;;34.08;16.23;;;11.50;50.80;;;;;;4977948;28;20078;-71
2022/03/24 08:20:19;;;;;;;28.85;17.48;;;11.90;45.50;;;;;;4977966;28;20034;-75
2022/03/24 08:22:45;;;;;;;29.05;16.98;;;12.30;43.90;;;;;;4977744;28;20499;-73
2022/03/24 08:25:11;;;;;;;32.83;18.48;;;12.70;42.50;;;;;;4977264;28;20038;-74
2022/03/24 08:27:36;;;;;;;30.08;17.75;;;13.10;39.80;;;;;;4977336;28;20023;-74
2022/03/24 08:30:06;;;;;;;32.65;17.40;;;13.20;38.80;;;;;;4977481;28;20086;-74
2022/03/24 08:32:32;;;;;;;30.95;16.27;;;13.50;37.70;;;;;;4977512;28;20061;-73
2022/03/24 08:34:58;;;;;;;27.80;18.40;;;13.80;37.20;;;;;;4966593;28;20090;-73
2022/03/24 08:37:23;;;;;;;25.25;16.77;;;14.00;35.80;;;;;;4994593;28;20026;-74
2022/03/24 08:39:49;;;;;;;29.38;19.27;;;14.10;35.40;;;;;;4994718;28;20038;-70
2022/03/24 08:42:14;;;;;;;25.05;16.85;;;14.30;34.70;;;;;;4995913;28;20088;-73
2022/03/24 08:44:40;;;;;;;26.88;17.40;;;14.30;33.70;;;;;;4996778;28;20074;-73
2022/03/24 08:47:06;;;;;;;27.60;18.52;;;14.40;33.60;;;;;;4996589;28;20018;-73
2022/03/24 08:49:32;;;;;;;28.33;18.42;;;14.60;32.30;;;;;;4996362;28;20023;-73
2022/03/24 08:51:58;;;;;;;23.00;17.05;;;14.80;32.00;;;;;;4996519;28;20030;-70
2022/03/24 08:54:25;;;;;;;24.10;16.63;;;14.80;31.70;;;;;;4996265;28;20038;-70
2022/03/24 08:56:51;;;;;;;26.48;17.48;;;14.90;32.00;;;;;;4996329;28;20029;-70
2022/03/24 08:59:17;;;;;;;31.65;19.60;;;15.00;30.90;;;;;;4996465;28;20378;-70
2022/03/24 09:01:43;;;;;;;24.13;17.10;;;15.10;30.60;;;;;;4996626;28;20026;-71
2022/03/24 09:04:10;;;;;;;27.10;18.35;;;15.30;31.40;;;;;;4996268;28;20093;-71
2022/03/24 09:06:37;;;;;;;24.70;16.05;;;15.50;29.80;;;;;;4996165;28;20133;-70
2022/03/24 09:09:03;;;;;;;23.85;16.52;;;15.40;27.50;;;;;;4996486;28;20550;-70
2022/03/24 09:11:28;;;;;;;28.55;16.65;;;15.50;28.50;;;;;;4996034;28;20482;-70
2022/03/24 09:13:54;;;;;;;25.40;17.65;;;15.30;27.40;;;;;;4996180;28;20030;-70
2022/03/24 09:16:20;;;;;;;26.02;18.73;;;15.50;28.50;;;;;;4996062;28;20137;-70
2022/03/24 09:18:46;;;;;;;25.52;17.27;;;15.60;27.50;;;;;;4996175;28;20019;-72
2022/03/24 09:21:13;;;;;;;27.58;17.33;;;15.50;26.60;;;;;;4996332;28;20030;-75
2022/03/24 09:23:38;;;;;;;26.00;16.75;;;15.50;26.20;;;;;;4996315;28;20104;-71
2022/03/24 09:26:04;;;;;;;25.52;18.70;;;15.60;25.70;;;;;;4995631;28;20429;-71
2022/03/24 09:28:29;;;;;;;31.13;18.23;;;15.60;25.90;;;;;;4995992;28;20023;-73
2022/03/24 09:30:56;;;;;;;26.52;17.77;;;15.40;26.30;;;;;;4995969;28;20066;-74
2022/03/24 09:33:21;;;;;;;24.70;17.55;;;15.60;26.40;;;;;;4995975;28;20014;-73
2022/03/24 09:35:49;;;;;;;25.08;17.30;;;15.70;25.80;;;;;;4995907;28;20038;-72
2022/03/24 09:38:14;;;;;;;25.50;17.17;;;15.80;26.00;;;;;;4995850;28;20026;-73
2022/03/24 09:40:41;;;;;;;23.95;17.15;;;16.00;26.00;;;;;;4995889;28;20034;-72
2022/03/24 09:43:07;;;;;;;26.02;17.23;;;16.00;25.50;;;;;;4995854;28;20026;-73
2022/03/24 09:45:33;;;;;;;23.65;17.75;;;16.10;25.20;;;;;;4995645;28;20026;-72
2022/03/24 09:47:58;;;;;;;23.83;17.25;;;16.10;26.20;;;;;;4995511;28;20023;-73
2022/03/24 09:50:27;;;;;;;26.48;17.50;;;16.20;26.00;;;;;;4995478;28;20038;-71
2022/03/24 09:52:53;;;;;;;25.73;18.55;;;16.30;25.50;;;;;;4995441;28;20027;-74
2022/03/24 09:55:20;;;;;;;24.23;18.38;;;16.40;24.90;;;;;;4995875;28;20022;-70
2022/03/24 09:57:47;;;;;;;25.92;17.80;;;16.60;24.70;;;;;;4995495;28;20097;-71
2022/03/24 10:00:15;;;;;;;22.13;16.98;;;16.70;24.10;;;;;;4995670;28;20109;-71
2022/03/24 10:02:40;;;;;;;26.63;17.90;;;16.70;23.80;;;;;;4996166;28;20022;-72
2022/03/24 10:05:08;;;;;;;28.73;17.55;;;16.80;23.80;;;;;;4977687;28;20121;-71
2022/03/24 10:07:43;;;;;;;23.23;17.67;;;16.90;23.60;;;;;;4977659;28;20109;-72
2022/03/24 10:10:21;;;;;;;27.60;18.60;;;17.10;23.00;;;;;;4995305;28;20042;-75
2022/03/24 10:12:46;;;;;;;26.50;17.30;;;17.10;22.60;;;;;;4995495;28;20092;-72
2022/03/24 10:15:13;;;;;;;25.58;18.25;;;17.40;22.30;;;;;;4994907;28;20030;-72
2022/03/24 10:17:40;;;;;;;24.85;17.75;;;17.60;22.50;;;;;;4995016;28;20026;-73
2022/03/24 10:20:14;;;;;;;29.98;18.67;;;17.60;22.50;;;;;;4994806;28;20116;-71
2022/03/24 10:22:55;;;;;;;25.15;17.63;;;17.80;23.10;;;;;;4987628;28;20506;-76
2022/03/24 10:25:27;;;;;;;25.27;17.58;;;18.00;22.10;;;;;;4994669;28;20113;-76
2022/03/24 10:28:10;;;;;;;24.77;17.65;;;17.90;22.00;;;;;;4994797;28;20030;-72
2022/03/24 10:30:58;;;;;;;27.52;18.83;;;18.10;21.90;;;;;;4994502;28;20386;-71
2022/03/24 10:33:32;;;;;;;28.05;18.63;;;18.10;22.20;;;;;;4964698;28;20431;-73
2022/03/24 10:36:10;;;;;;;25.05;16.90;;;17.90;22.80;;;;;;4975523;28;20026;-73
2022/03/24 10:38:42;;;;;;;16.65;12.10;;;18.40;26.10;;;;;;4975269;28;20054;-73
2022/03/24 10:41:25;;;;;;;27.50;18.08;;;18.70;27.10;;;;;;4975066;28;20023;-73
2022/03/24 10:43:56;;;;;;;26.73;18.88;;;19.00;24.80;;;;;;4974053;28;20087;-73
2022/03/24 10:46:27;;;;;;;30.92;18.95;;;18.80;24.20;;;;;;4974633;28;20030;-72
2022/03/24 10:48:54;;;;;;;26.65;17.95;;;18.90;25.20;;;;;;4975230;28;20379;-72
2022/03/24 10:51:31;;;;;;;25.05;15.35;;;18.90;24.80;;;;;;4974674;28;20483;-73
2022/03/24 10:54:34;;;;;;;29.95;18.30;;;19.20;25.10;;;;;;4974973;28;20352;-72
2022/03/24 10:57:14;;;;;;;18.08;13.93;;;19.60;24.20;;;;;;4975173;28;20023;-73
2022/03/24 10:59:47;;;;;;;27.33;16.90;;;19.80;23.20;;;;;;4957694;28;20027;-73
2022/03/24 11:02:15;;;;;;;19.98;14.68;;;20.30;22.70;;;;;;4974494;28;20030;-72
2022/03/24 11:04:41;;;;;;;23.10;16.40;;;20.60;21.80;;;;;;4974515;28;20027;-73
2022/03/24 11:07:07;;;;;;;24.90;17.63;;;20.90;22.10;;;;;;4974763;28;20078;-72
2022/03/24 11:09:34;;;;;;;25.65;18.92;;;21.20;20.00;;;;;;4974494;28;20069;-72
2022/03/24 11:12:27;;;;;;;23.48;17.33;;;21.00;17.80;;;;;;4974309;28;20523;-75
2022/03/24 11:14:57;;;;;;;21.92;16.27;;;20.80;18.20;;;;;;4962197;28;20106;-75
2022/03/24 11:17:32;;;;;;;29.40;19.48;;;20.90;18.80;;;;;;4975031;28;20033;-72
2022/03/24 11:20:13;;;;;;;25.45;17.73;;;20.80;18.20;;;;;;4974752;28;20039;-71
2022/03/24 11:22:52;;;;;;;28.10;18.63;;;20.60;18.70;;;;;;4974701;28;20019;-74
2022/03/24 11:25:19;;;;;;;30.42;20.05;;;20.70;18.70;;;;;;4957642;28;20022;-80
2022/03/24 11:27:45;;;;;;;30.33;19.88;;;20.10;18.50;;;;;;4975937;28;20029;-83
2022/03/24 11:30:12;;;;;;;26.48;18.13;;;20.00;18.90;;;;;;4976100;28;20090;-71
2022/03/24 11:32:42;;;;;;;30.40;19.17;;;20.30;19.40;;;;;;4975717;28;20035;-82
2022/03/24 11:35:09;;;;;;;25.02;16.67;;;20.70;19.20;;;;;;4957384;28;20114;-82
2022/03/24 11:37:35;;;;;;;24.73;17.00;;;21.00;18.50;;;;;;4958863;28;20030;-80
2022/03/24 11:40:12;;;;;;;24.85;17.42;;;21.50;18.60;;;;;;4959771;28;20483;-74
2022/03/24 11:42:48;;;;;;;23.83;17.17;;;22.00;18.00;;;;;;4975016;28;20058;-76
2022/03/24 11:45:30;;;;;;;25.45;16.90;;;21.70;16.60;;;;;;4974675;28;20069;-71
2022/03/24 11:48:06;;;;;;;21.35;16.70;;;22.00;16.60;;;;;;4974130;28;20050;-73
2022/03/24 11:50:47;;;;;;;23.27;17.02;;;22.30;16.80;;;;;;4973538;28;20518;-75
2022/03/24 11:53:27;;;;;;;27.10;17.70;;;22.60;16.20;;;;;;4973412;28;20033;-72
2022/03/24 11:55:59;;;;;;;22.30;16.73;;;22.90;15.70;;;;;;4955776;28;20046;-71
2022/03/24 11:59:06;;;;;;;21.67;17.05;;;23.00;15.10;;;;;;4973225;28;20023;-71
2022/03/24 12:01:33;;;;;;;22.27;16.60;;;22.40;14.40;;;;;;4942875;28;20038;-72
2022/03/24 12:04:10;;;;;;;20.13;16.33;;;22.20;15.20;;;;;;4973814;28;20073;-73
2022/03/24 12:06:57;;;;;;;24.55;15.55;;;22.20;15.90;;;;;;4973613;28;20054;-76
2022/03/24 12:09:26;;;;;;;22.38;15.60;;;22.70;15.50;;;;;;4973686;28;20030;-74
2022/03/24 12:12:03;;;;;;;21.42;16.10;;;23.10;14.80;;;;;;4973508;28;20372;-75
2022/03/24 12:14:32;;;;;;;19.98;15.93;;;23.40;13.90;;;;;;4973683;28;20031;-76
2022/03/24 12:17:14;;;;;;;21.58;15.85;;;22.90;13.20;;;;;;4973771;28;20379;-75
2022/03/24 12:19:50;;;;;;;22.77;15.35;;;23.10;13.40;;;;;;4973766;28;20038;-76
2022/03/24 12:22:34;;;;;;;19.85;15.43;;;23.30;13.70;;;;;;4956462;28;20031;-80
2022/03/24 12:24:59;;;;;;;18.40;15.40;;;23.70;13.60;;;;;;4956468;28;20030;-80
2022/03/24 12:27:26;;;;;;;20.00;15.23;;;23.90;13.10;;;;;;4956603;28;20034;-79
2022/03/24 12:30:11;;;;;;;19.55;14.77;;;24.20;12.70;;;;;;4973141;28;20030;-76
2022/03/24 12:32:37;;;;;;;20.75;15.13;;;24.40;11.70;;;;;;4973629;28;20070;-77
2022/03/24 12:35:03;;;;;;;17.20;14.98;;;24.50;11.60;;;;;;4973455;28;20055;-78
2022/03/24 12:37:31;;;;;;;18.30;14.45;;;24.50;11.50;;;;;;4973940;28;20027;-78